Time;durP1;ratioP1;P1;durP2;ratioP2;P2;SDS_P1;SDS_P2;PMS_P1;PMS_P2;Temp;Humidity;BMP_temperature;BMP_pressure;BME280_temperature;BME280_humidity;BME280_pressure;Samples;Min_cycle;Max_cycle;Signal;HPM_P1;HPM_P2
2022/02/16 00:02:15;;;;;;;1.40;0.60;;;9.70;99.90;;;;;;5001615;28;20629;-76
2022/02/16 00:04:42;;;;;;;1.10;0.50;;;9.70;99.90;;;;;;5000912;28;20595;-78
2022/02/16 00:07:08;;;;;;;1.67;0.60;;;9.70;99.90;;;;;;5002995;28;20244;-76
2022/02/16 00:09:34;;;;;;;2.80;0.50;;;9.70;99.90;;;;;;4998398;28;20194;-77
2022/02/16 00:12:01;;;;;;;1.65;0.50;;;9.70;99.90;;;;;;4984784;28;20186;-76
2022/02/16 00:14:28;;;;;;;1.23;0.70;;;9.70;99.90;;;;;;5000875;28;20183;-76
2022/02/16 00:16:54;;;;;;;1.40;0.50;;;9.70;99.90;;;;;;5000983;28;20270;-77
2022/02/16 00:19:20;;;;;;;1.25;0.50;;;9.70;99.90;;;;;;4981903;28;20218;-76
2022/02/16 00:21:46;;;;;;;1.37;0.47;;;9.70;99.90;;;;;;4993516;28;20170;-76
2022/02/16 00:24:11;;;;;;;1.20;0.40;;;9.70;99.90;;;;;;4999612;28;20733;-76
2022/02/16 00:26:38;;;;;;;1.30;0.50;;;9.70;99.90;;;;;;4993016;28;20193;-76
2022/02/16 00:29:04;;;;;;;1.30;0.60;;;9.70;99.90;;;;;;5000805;28;20183;-76
2022/02/16 00:31:30;;;;;;;1.23;0.50;;;9.70;99.90;;;;;;4967504;28;20661;-76
2022/02/16 00:33:56;;;;;;;1.33;0.50;;;9.70;99.90;;;;;;5004857;28;20251;-76
2022/02/16 00:36:22;;;;;;;1.50;0.60;;;9.70;99.90;;;;;;4977884;28;20183;-76
2022/02/16 00:38:47;;;;;;;1.20;0.50;;;9.70;99.90;;;;;;4989375;28;20236;-76
2022/02/16 00:41:14;;;;;;;1.33;0.57;;;9.70;99.90;;;;;;5002044;28;20226;-76
2022/02/16 00:43:40;;;;;;;1.17;0.50;;;9.70;99.90;;;;;;5006027;28;20213;-76
2022/02/16 00:46:06;;;;;;;1.37;0.53;;;9.70;99.90;;;;;;4995642;28;20590;-76
2022/02/16 00:48:32;;;;;;;2.10;0.60;;;9.70;99.90;;;;;;4994764;28;20205;-76
2022/02/16 00:50:58;;;;;;;1.20;0.50;;;9.80;99.90;;;;;;5005177;28;20546;-76
2022/02/16 00:53:24;;;;;;;1.25;0.45;;;9.80;99.90;;;;;;4993848;28;20190;-77
2022/02/16 00:55:50;;;;;;;1.20;0.40;;;9.80;99.90;;;;;;4996595;28;20174;-76
2022/02/16 00:58:17;;;;;;;1.20;0.50;;;9.80;99.90;;;;;;4994942;28;20867;-76
2022/02/16 01:00:45;;;;;;;1.58;0.50;;;9.80;99.90;;;;;;4994691;28;20187;-76
2022/02/16 01:03:11;;;;;;;1.42;0.50;;;9.80;99.90;;;;;;4978325;28;20214;-76
2022/02/16 01:05:37;;;;;;;1.30;0.50;;;9.80;99.90;;;;;;4971747;28;20190;-76
2022/02/16 01:08:07;;;;;;;1.00;0.40;;;9.80;99.90;;;;;;4985429;28;20199;-76
2022/02/16 01:10:33;;;;;;;1.73;0.52;;;9.80;99.90;;;;;;4986793;28;20175;-77
2022/02/16 01:12:59;;;;;;;1.00;0.50;;;9.80;99.90;;;;;;5005881;28;20179;-76
2022/02/16 01:15:25;;;;;;;1.20;0.60;;;9.80;99.90;;;;;;4997802;28;20639;-76
2022/02/16 01:17:51;;;;;;;1.13;0.50;;;9.90;99.90;;;;;;4987106;28;20628;-77
2022/02/16 01:20:22;;;;;;;2.17;0.40;;;9.80;99.90;;;;;;4984841;28;20223;-77
2022/02/16 01:22:55;;;;;;;0.90;0.40;;;9.90;99.90;;;;;;4995204;28;20194;-77
2022/02/16 01:25:21;;;;;;;1.00;0.47;;;9.90;99.90;;;;;;4986918;28;20190;-76
2022/02/16 01:27:47;;;;;;;1.00;0.50;;;9.90;99.90;;;;;;4986074;28;20341;-77
2022/02/16 01:30:15;;;;;;;1.10;0.50;;;9.90;99.90;;;;;;4987335;28;20190;-77
2022/02/16 01:32:49;;;;;;;1.10;0.50;;;10.00;99.90;;;;;;5002326;28;20194;-77
2022/02/16 01:35:20;;;;;;;1.15;0.40;;;10.00;99.90;;;;;;4986125;28;20187;-77
2022/02/16 01:37:49;;;;;;;1.00;0.40;;;10.00;99.90;;;;;;4988072;28;20301;-77
2022/02/16 01:40:15;;;;;;;0.90;0.40;;;10.00;99.90;;;;;;4968620;28;20675;-77
2022/02/16 01:42:44;;;;;;;1.00;0.40;;;10.00;99.90;;;;;;4978558;28;20273;-76
2022/02/16 01:45:29;;;;;;;1.42;0.40;;;10.00;99.90;;;;;;4979060;28;20281;-76
2022/02/16 01:47:56;;;;;;;1.00;0.40;;;10.10;99.90;;;;;;5003504;28;20194;-76
2022/02/16 01:50:23;;;;;;;0.90;0.40;;;10.10;99.90;;;;;;4970347;28;20189;-76
2022/02/16 01:52:49;;;;;;;1.00;0.40;;;10.00;99.90;;;;;;4987142;28;20232;-76
2022/02/16 01:55:16;;;;;;;1.27;0.40;;;10.10;99.90;;;;;;4985222;28;20182;-77
2022/02/16 01:57:43;;;;;;;1.83;0.50;;;10.10;99.90;;;;;;4971538;28;20202;-76
2022/02/16 02:00:12;;;;;;;1.00;0.45;;;10.10;99.90;;;;;;4976136;28;20187;-76
2022/02/16 02:02:45;;;;;;;1.00;0.40;;;10.10;99.90;;;;;;5004193;28;20208;-76
2022/02/16 02:05:17;;;;;;;1.90;0.50;;;10.20;99.90;;;;;;4993245;28;20190;-76
2022/02/16 02:07:43;;;;;;;2.03;0.50;;;10.10;99.90;;;;;;4994594;28;20198;-76
2022/02/16 02:10:11;;;;;;;1.20;0.43;;;10.10;99.90;;;;;;4993916;28;20578;-76
2022/02/16 02:12:51;;;;;;;1.00;0.40;;;10.20;99.90;;;;;;5001709;28;20190;-76
2022/02/16 02:15:24;;;;;;;0.98;0.43;;;10.20;99.90;;;;;;4983732;28;20237;-77
2022/02/16 02:18:00;;;;;;;1.50;0.40;;;10.20;99.90;;;;;;4967939;28;20212;-76
2022/02/16 02:20:29;;;;;;;1.30;0.45;;;10.20;99.90;;;;;;4986757;28;20193;-76
2022/02/16 02:22:56;;;;;;;1.75;0.40;;;10.20;99.90;;;;;;4985380;28;20222;-77
2022/02/16 02:25:22;;;;;;;1.00;0.40;;;10.20;99.90;;;;;;4989202;28;20170;-76
2022/02/16 02:27:48;;;;;;;1.00;0.43;;;10.20;99.90;;;;;;4970386;28;20276;-76
2022/02/16 02:30:16;;;;;;;1.20;0.50;;;10.20;99.90;;;;;;4991838;28;20537;-76
2022/02/16 02:32:48;;;;;;;0.90;0.40;;;10.20;99.90;;;;;;5001032;28;20201;-77
2022/02/16 02:35:15;;;;;;;2.20;0.50;;;10.20;99.90;;;;;;4985996;28;20171;-76
2022/02/16 02:37:42;;;;;;;1.00;0.40;;;10.20;99.90;;;;;;5002937;28;20331;-76
2022/02/16 02:40:10;;;;;;;1.10;0.68;;;10.30;99.90;;;;;;4996215;28;20206;-75
2022/02/16 02:42:39;;;;;;;1.10;0.50;;;10.30;99.90;;;;;;5001804;28;20222;-75
2022/02/16 02:45:09;;;;;;;2.05;0.57;;;10.30;99.90;;;;;;5004812;28;20281;-76
2022/02/16 02:47:35;;;;;;;3.03;0.60;;;10.30;99.90;;;;;;5000783;28;20202;-76
2022/02/16 02:50:03;;;;;;;2.80;0.60;;;10.30;99.90;;;;;;4990178;28;20289;-76
2022/02/16 02:52:31;;;;;;;1.35;0.40;;;10.30;99.90;;;;;;4963636;28;20241;-76
2022/02/16 02:54:58;;;;;;;1.55;0.50;;;10.30;99.90;;;;;;4978001;28;20620;-76
2022/02/16 02:57:23;;;;;;;1.50;0.60;;;10.30;99.90;;;;;;4993409;28;20290;-76
2022/02/16 02:59:49;;;;;;;2.23;0.50;;;10.30;99.90;;;;;;5002391;28;20265;-76
2022/02/16 03:02:15;;;;;;;1.10;0.50;;;10.30;99.90;;;;;;5003816;28;20197;-76
2022/02/16 03:04:40;;;;;;;1.10;0.50;;;10.30;99.90;;;;;;5000373;28;20186;-76
2022/02/16 03:07:06;;;;;;;2.27;0.60;;;10.30;99.90;;;;;;4982691;28;20199;-76
2022/02/16 03:09:32;;;;;;;1.20;0.53;;;10.30;99.90;;;;;;4993935;28;20529;-76
2022/02/16 03:11:58;;;;;;;2.17;0.50;;;10.30;99.90;;;;;;4986161;28;20589;-77
2022/02/16 03:14:24;;;;;;;2.23;0.60;;;10.30;99.90;;;;;;4984279;28;20190;-77
2022/02/16 03:16:51;;;;;;;2.05;0.60;;;10.30;99.90;;;;;;4980636;28;20644;-77
2022/02/16 03:19:16;;;;;;;1.63;0.60;;;10.30;99.90;;;;;;4982665;28;20183;-77
2022/02/16 03:21:42;;;;;;;2.00;0.50;;;10.30;99.90;;;;;;4982240;28;20179;-77
2022/02/16 03:24:08;;;;;;;1.30;0.50;;;10.30;99.90;;;;;;4993898;28;20565;-77
2022/02/16 03:26:35;;;;;;;2.00;0.65;;;10.40;99.90;;;;;;4983584;28;20178;-77
2022/02/16 03:29:01;;;;;;;1.33;0.50;;;10.40;99.90;;;;;;4984875;28;20194;-77
2022/02/16 03:31:32;;;;;;;1.70;0.52;;;10.40;99.90;;;;;;4993656;28;20174;-77
2022/02/16 03:34:04;;;;;;;2.28;0.60;;;10.40;99.90;;;;;;4967496;28;20187;-77
2022/02/16 03:36:34;;;;;;;1.50;0.60;;;10.40;99.90;;;;;;4992483;28;20629;-77
2022/02/16 03:39:00;;;;;;;1.27;0.50;;;10.40;99.90;;;;;;4987470;28;20248;-77
2022/02/16 03:41:29;;;;;;;1.10;0.50;;;10.50;99.90;;;;;;4985072;28;20190;-77
2022/02/16 03:43:56;;;;;;;1.45;0.50;;;10.50;99.90;;;;;;4966783;28;20230;-77
2022/02/16 03:46:26;;;;;;;1.73;0.50;;;10.50;99.90;;;;;;4982906;28;20562;-77
2022/02/16 03:48:52;;;;;;;1.00;0.40;;;10.50;99.90;;;;;;4976236;28;20260;-77
2022/02/16 03:51:18;;;;;;;0.90;0.40;;;10.50;99.90;;;;;;4992730;28;20210;-77
2022/02/16 03:53:44;;;;;;;0.90;0.40;;;10.60;99.90;;;;;;4983484;28;20197;-77
2022/02/16 03:56:10;;;;;;;0.90;0.40;;;10.60;99.90;;;;;;4993786;28;20577;-77
2022/02/16 03:58:38;;;;;;;1.90;0.50;;;10.60;99.90;;;;;;4986174;28;20214;-77
2022/02/16 04:01:04;;;;;;;1.00;0.40;;;10.60;99.90;;;;;;4984864;28;20269;-77
2022/02/16 04:03:30;;;;;;;1.00;0.40;;;10.60;99.90;;;;;;4983726;28;20676;-77
2022/02/16 04:05:56;;;;;;;1.13;0.40;;;10.70;99.90;;;;;;4968150;28;20597;-77
2022/02/16 04:08:22;;;;;;;1.10;0.40;;;10.70;99.90;;;;;;4985748;28;20826;-77
2022/02/16 04:10:48;;;;;;;1.00;0.40;;;10.80;99.90;;;;;;5006475;28;20185;-77
2022/02/16 04:13:18;;;;;;;1.00;0.40;;;10.80;99.90;;;;;;4997547;28;20301;-77
2022/02/16 04:15:45;;;;;;;1.08;0.40;;;10.80;99.90;;;;;;4994666;28;20178;-77
2022/02/16 04:18:11;;;;;;;1.03;0.43;;;10.80;99.90;;;;;;4990358;28;20198;-77
2022/02/16 04:20:37;;;;;;;1.00;0.40;;;10.80;99.90;;;;;;4973368;28;20581;-77
2022/02/16 04:23:05;;;;;;;1.23;0.40;;;10.90;99.90;;;;;;4991483;28;20205;-77
2022/02/16 04:25:31;;;;;;;0.90;0.30;;;10.90;99.90;;;;;;4996987;28;20182;-77
2022/02/16 04:27:58;;;;;;;1.00;0.40;;;10.90;99.90;;;;;;5009158;28;20198;-77
2022/02/16 04:30:27;;;;;;;1.10;0.30;;;10.90;99.90;;;;;;4982357;28;20186;-77
2022/02/16 04:32:54;;;;;;;2.35;0.40;;;11.00;99.90;;;;;;4988499;28;20174;-77
2022/02/16 04:35:21;;;;;;;0.90;0.38;;;10.90;99.90;;;;;;4972699;28;20183;-77
2022/02/16 04:37:46;;;;;;;1.70;0.40;;;11.00;99.90;;;;;;5009266;28;20705;-77
2022/02/16 04:40:13;;;;;;;0.90;0.30;;;11.00;99.90;;;;;;5009224;28;20233;-77
2022/02/16 04:42:39;;;;;;;0.90;0.30;;;11.00;99.90;;;;;;5008674;28;20205;-77
2022/02/16 04:45:06;;;;;;;0.90;0.30;;;11.00;99.90;;;;;;4981300;28;20198;-77
2022/02/16 04:47:33;;;;;;;0.90;0.30;;;11.00;99.90;;;;;;4989584;28;20206;-77
2022/02/16 04:49:59;;;;;;;0.90;0.30;;;11.00;99.90;;;;;;4990973;28;20185;-77
2022/02/16 04:52:34;;;;;;;1.08;0.30;;;11.00;99.90;;;;;;4997661;28;20609;-77
2022/02/16 04:55:07;;;;;;;0.90;0.38;;;11.00;99.90;;;;;;4975047;28;20274;-77
2022/02/16 04:57:32;;;;;;;1.00;0.40;;;11.00;99.90;;;;;;5006504;28;20230;-77
2022/02/16 04:59:59;;;;;;;1.00;0.30;;;11.00;99.90;;;;;;5008885;28;20213;-77
2022/02/16 05:02:26;;;;;;;1.33;0.38;;;11.00;99.90;;;;;;4988408;28;20904;-77
2022/02/16 05:04:53;;;;;;;0.90;0.30;;;11.00;99.90;;;;;;5006902;28;20185;-77
2022/02/16 05:07:19;;;;;;;0.90;0.40;;;11.00;99.90;;;;;;5007186;28;20571;-77
2022/02/16 05:09:45;;;;;;;0.90;0.30;;;11.00;99.90;;;;;;4998698;28;20174;-77
2022/02/16 05:12:12;;;;;;;0.90;0.30;;;11.10;99.90;;;;;;4972424;28;20175;-76
2022/02/16 05:14:38;;;;;;;1.00;0.40;;;11.00;99.90;;;;;;4999417;28;20622;-76
2022/02/16 05:17:04;;;;;;;1.15;0.38;;;11.00;99.90;;;;;;4997091;28;20650;-76
2022/02/16 05:19:31;;;;;;;0.90;0.40;;;11.00;99.90;;;;;;4990656;28;20273;-76
2022/02/16 05:21:57;;;;;;;0.90;0.40;;;11.00;99.90;;;;;;5002920;28;20182;-76
2022/02/16 05:24:28;;;;;;;0.90;0.40;;;11.00;99.90;;;;;;4993201;28;20706;-76
2022/02/16 05:26:55;;;;;;;1.30;0.30;;;11.00;99.90;;;;;;4988449;28;20665;-76
2022/02/16 05:29:21;;;;;;;0.90;0.40;;;11.00;99.90;;;;;;4986001;28;20261;-77
2022/02/16 05:31:53;;;;;;;1.13;0.40;;;11.00;99.90;;;;;;4978933;28;20593;-76
2022/02/16 05:34:19;;;;;;;1.35;0.40;;;11.00;99.90;;;;;;4993605;28;20660;-76
2022/02/16 05:36:46;;;;;;;1.15;0.40;;;11.00;99.90;;;;;;4979900;28;20186;-77
2022/02/16 05:39:12;;;;;;;1.00;0.40;;;11.00;99.90;;;;;;4993268;28;20224;-76
2022/02/16 05:41:38;;;;;;;1.30;0.40;;;11.00;99.90;;;;;;4994985;28;20581;-76
2022/02/16 05:44:03;;;;;;;0.97;0.30;;;11.00;99.90;;;;;;4993204;28;20675;-76
2022/02/16 05:46:30;;;;;;;0.90;0.30;;;11.00;99.90;;;;;;4970502;28;20254;-76
2022/02/16 05:48:55;;;;;;;1.00;0.40;;;11.10;99.90;;;;;;5001833;28;20230;-77
2022/02/16 05:51:21;;;;;;;0.90;0.30;;;11.10;99.90;;;;;;4967457;28;21142;-77
2022/02/16 05:53:47;;;;;;;1.30;0.50;;;11.10;99.90;;;;;;4987707;28;20178;-77
2022/02/16 05:56:13;;;;;;;1.60;0.60;;;11.10;99.90;;;;;;4984531;28;20597;-77
2022/02/16 05:58:39;;;;;;;1.00;0.40;;;11.10;99.90;;;;;;4987326;28;20612;-77
2022/02/16 06:01:06;;;;;;;0.90;0.40;;;11.10;99.90;;;;;;4985140;28;20218;-77
2022/02/16 06:03:44;;;;;;;1.58;0.50;;;11.10;99.90;;;;;;4957551;28;20206;-77
2022/02/16 06:06:12;;;;;;;1.20;0.45;;;11.20;99.90;;;;;;4985305;28;20185;-77
2022/02/16 06:08:38;;;;;;;1.00;0.40;;;11.20;99.90;;;;;;4987896;28;20273;-77
2022/02/16 06:11:04;;;;;;;1.10;0.50;;;11.20;99.90;;;;;;4994269;28;21150;-77
2022/02/16 06:13:33;;;;;;;1.00;0.40;;;11.20;99.90;;;;;;4984815;28;20175;-77
2022/02/16 06:15:59;;;;;;;1.02;0.60;;;11.30;99.90;;;;;;4978507;28;20185;-77
2022/02/16 06:18:25;;;;;;;0.90;0.40;;;11.30;99.90;;;;;;4984039;28;20286;-77
2022/02/16 06:20:51;;;;;;;1.20;0.40;;;11.30;99.90;;;;;;4986821;28;20654;-77
2022/02/16 06:23:19;;;;;;;1.10;0.40;;;11.40;99.90;;;;;;4985238;28;20206;-78
2022/02/16 06:25:45;;;;;;;1.10;0.40;;;11.40;99.90;;;;;;4985201;28;20178;-76
2022/02/16 06:28:12;;;;;;;0.90;0.30;;;11.40;99.90;;;;;;4986204;28;20204;-76
2022/02/16 06:30:38;;;;;;;0.90;0.40;;;11.50;99.90;;;;;;4991602;28;20174;-76
2022/02/16 06:33:10;;;;;;;1.00;0.40;;;11.50;99.90;;;;;;5000162;28;20194;-76
2022/02/16 06:35:37;;;;;;;1.17;0.50;;;11.50;99.90;;;;;;4991873;28;20774;-76
2022/02/16 06:38:06;;;;;;;1.00;0.50;;;11.40;99.90;;;;;;4985666;28;20590;-77
2022/02/16 06:40:33;;;;;;;1.00;0.50;;;11.40;99.90;;;;;;4991192;28;20233;-77
2022/02/16 06:43:00;;;;;;;1.63;0.50;;;11.50;99.90;;;;;;4974985;28;20321;-77
2022/02/16 06:45:28;;;;;;;1.52;0.50;;;11.50;99.90;;;;;;4995214;28;20597;-77
2022/02/16 06:47:53;;;;;;;1.10;0.50;;;11.60;99.90;;;;;;4994141;28;20194;-78
2022/02/16 06:50:19;;;;;;;0.93;0.40;;;11.60;99.90;;;;;;4993550;28;20590;-77
2022/02/16 06:52:51;;;;;;;1.00;0.40;;;11.60;99.90;;;;;;4975209;28;20179;-76
2022/02/16 06:55:17;;;;;;;1.10;0.60;;;11.60;99.90;;;;;;4988160;28;20186;-78
2022/02/16 06:57:47;;;;;;;1.00;0.47;;;11.60;99.90;;;;;;4992982;28;20752;-79
2022/02/16 07:00:14;;;;;;;1.15;0.40;;;11.60;99.90;;;;;;4984526;28;20194;-77
2022/02/16 07:02:45;;;;;;;1.20;0.50;;;11.70;99.90;;;;;;4984014;28;20214;-77
2022/02/16 07:05:14;;;;;;;1.92;0.50;;;11.70;99.90;;;;;;4983274;28;20179;-78
2022/02/16 07:07:43;;;;;;;1.10;0.50;;;11.70;99.90;;;;;;4984438;28;20202;-77
2022/02/16 07:10:09;;;;;;;1.00;0.50;;;11.80;99.90;;;;;;4988481;28;20175;-76
2022/02/16 07:12:37;;;;;;;1.00;0.40;;;11.80;99.90;;;;;;4983974;28;20171;-76
2022/02/16 07:15:03;;;;;;;0.90;0.40;;;11.80;99.90;;;;;;4989427;28;20567;-76
2022/02/16 07:17:30;;;;;;;1.02;0.50;;;11.80;99.90;;;;;;4983539;28;20195;-76
2022/02/16 07:19:56;;;;;;;1.63;0.50;;;11.80;99.90;;;;;;4985338;28;20193;-77
2022/02/16 07:22:25;;;;;;;1.27;0.47;;;11.80;99.90;;;;;;4987228;28;20187;-76
2022/02/16 07:24:51;;;;;;;1.42;0.40;;;11.80;99.90;;;;;;4991400;28;20175;-77
2022/02/16 07:27:17;;;;;;;1.30;0.50;;;11.90;99.90;;;;;;4994145;28;20562;-76
2022/02/16 07:29:44;;;;;;;1.60;0.80;;;11.80;99.90;;;;;;4993633;28;20908;-75
2022/02/16 07:32:10;;;;;;;1.53;0.73;;;11.90;99.90;;;;;;4983193;28;20322;-76
2022/02/16 07:34:37;;;;;;;1.48;0.80;;;11.90;99.90;;;;;;4982841;28;20983;-76
2022/02/16 07:37:03;;;;;;;1.83;0.88;;;11.90;99.90;;;;;;4993017;28;20781;-75
2022/02/16 07:39:31;;;;;;;1.92;0.80;;;11.90;99.90;;;;;;4983036;28;20183;-76
2022/02/16 07:41:59;;;;;;;1.70;0.80;;;11.90;99.90;;;;;;4985732;28;20189;-75
2022/02/16 07:44:46;;;;;;;1.50;0.80;;;12.00;99.90;;;;;;4995789;28;20200;-75
2022/02/16 07:47:24;;;;;;;1.50;0.80;;;12.00;99.90;;;;;;4983845;28;20245;-75
2022/02/16 07:49:53;;;;;;;1.33;0.60;;;12.00;99.90;;;;;;5007684;28;20190;-76
2022/02/16 07:52:35;;;;;;;1.88;0.60;;;12.00;99.90;;;;;;5000702;28;20182;-76
2022/02/16 07:55:11;;;;;;;2.38;0.80;;;12.00;99.90;;;;;;4989917;28;20532;-77
2022/02/16 07:57:38;;;;;;;1.33;0.60;;;12.10;99.90;;;;;;4971726;28;20195;-76
2022/02/16 08:00:06;;;;;;;2.80;0.70;;;12.10;99.90;;;;;;4992266;28;20253;-77
2022/02/16 08:02:41;;;;;;;2.00;0.50;;;12.10;99.90;;;;;;5002626;28;20541;-76
2022/02/16 08:05:11;;;;;;;1.30;0.50;;;12.10;99.90;;;;;;4996819;28;20248;-76
2022/02/16 08:07:38;;;;;;;1.10;0.50;;;12.10;99.90;;;;;;4968593;28;20561;-76
2022/02/16 08:10:05;;;;;;;1.20;0.40;;;12.10;99.90;;;;;;4982985;28;20229;-76
2022/02/16 08:12:30;;;;;;;1.70;0.50;;;12.10;99.90;;;;;;4991248;28;20189;-75
2022/02/16 08:14:56;;;;;;;1.10;0.50;;;12.10;99.90;;;;;;4984857;28;20537;-76
2022/02/16 08:17:23;;;;;;;1.48;0.50;;;12.10;99.90;;;;;;4985709;28;20197;-75
2022/02/16 08:19:50;;;;;;;4.13;0.50;;;12.10;99.90;;;;;;4990254;28;20179;-75
2022/02/16 08:22:16;;;;;;;1.38;0.50;;;12.10;99.90;;;;;;4984421;28;20233;-77
2022/02/16 08:24:42;;;;;;;1.30;0.50;;;12.10;99.90;;;;;;4983166;28;20559;-76
2022/02/16 08:27:15;;;;;;;1.30;0.55;;;12.10;99.90;;;;;;4982424;28;20210;-75
2022/02/16 08:29:45;;;;;;;1.20;0.40;;;12.10;99.90;;;;;;4965383;28;20187;-76
2022/02/16 08:32:23;;;;;;;1.83;0.40;;;12.20;99.90;;;;;;4999064;28;20213;-77
2022/02/16 08:35:14;;;;;;;1.00;0.40;;;12.30;99.90;;;;;;4974080;28;20202;-76
2022/02/16 08:37:40;;;;;;;1.48;0.40;;;12.30;99.90;;;;;;4981971;28;20207;-76
2022/02/16 08:40:07;;;;;;;1.10;0.40;;;12.30;99.90;;;;;;5002461;28;20185;-76
2022/02/16 08:42:33;;;;;;;1.30;0.50;;;12.30;99.90;;;;;;4999751;28;20229;-76
2022/02/16 08:44:59;;;;;;;0.90;0.30;;;12.30;99.90;;;;;;5004872;28;20190;-76
2022/02/16 08:47:25;;;;;;;4.40;0.40;;;12.30;99.90;;;;;;4974621;28;20625;-76
2022/02/16 08:49:52;;;;;;;0.98;0.40;;;12.30;99.90;;;;;;4997046;28;20221;-76
2022/02/16 08:52:17;;;;;;;1.85;0.40;;;12.40;99.90;;;;;;4993535;28;20596;-77
2022/02/16 08:54:43;;;;;;;1.00;0.40;;;12.40;99.90;;;;;;4988133;28;20178;-76
2022/02/16 08:57:09;;;;;;;1.20;0.40;;;12.40;99.90;;;;;;5001647;28;20256;-77
2022/02/16 08:59:35;;;;;;;2.17;0.40;;;12.50;99.90;;;;;;5001338;28;20175;-77
2022/02/16 09:02:01;;;;;;;0.90;0.30;;;12.60;99.90;;;;;;5004040;28;20189;-76
2022/02/16 09:04:27;;;;;;;1.27;0.40;;;12.60;99.90;;;;;;4987288;28;20199;-77
2022/02/16 09:09:38;;;;;;;2.00;0.40;;;12.70;99.90;;;;;;4993250;28;20590;-78
2022/02/16 09:12:05;;;;;;;0.90;0.30;;;12.80;99.90;;;;;;5007224;28;20284;-79
2022/02/16 09:14:31;;;;;;;0.90;0.40;;;12.80;99.90;;;;;;4993685;28;20198;-79
2022/02/16 09:16:57;;;;;;;1.10;0.40;;;12.90;99.90;;;;;;5002083;28;20700;-79
2022/02/16 09:19:22;;;;;;;1.00;0.40;;;12.90;99.90;;;;;;5004179;28;20593;-78
2022/02/16 09:21:49;;;;;;;0.90;0.33;;;13.00;99.90;;;;;;5003288;28;20183;-79
2022/02/16 09:24:14;;;;;;;1.00;0.40;;;13.10;99.90;;;;;;4996401;28;20198;-78
2022/02/16 09:26:40;;;;;;;1.00;0.40;;;13.10;99.90;;;;;;5004125;28;20553;-79
2022/02/16 09:29:06;;;;;;;0.90;0.30;;;13.20;99.90;;;;;;4996205;28;20617;-80
2022/02/16 09:31:32;;;;;;;1.00;0.40;;;13.30;99.90;;;;;;5005944;28;20183;-80
2022/02/16 09:33:57;;;;;;;1.00;0.40;;;13.30;99.90;;;;;;5005999;28;20209;-80
2022/02/16 09:36:23;;;;;;;0.90;0.33;;;13.40;99.90;;;;;;4993970;28;20249;-76
2022/02/16 09:38:49;;;;;;;1.00;0.40;;;13.40;99.90;;;;;;5004760;28;20289;-76
2022/02/16 09:41:16;;;;;;;3.00;0.40;;;13.50;99.90;;;;;;5003475;28;20266;-76
2022/02/16 09:43:45;;;;;;;1.20;0.30;;;13.50;99.90;;;;;;4986001;28;20269;-76
2022/02/16 09:46:12;;;;;;;1.00;0.40;;;13.60;99.90;;;;;;4988130;28;20193;-76
2022/02/16 09:48:40;;;;;;;1.07;0.43;;;13.60;99.90;;;;;;4987474;28;20198;-76
2022/02/16 09:51:06;;;;;;;1.02;0.40;;;13.70;99.90;;;;;;4986768;28;20573;-76
2022/02/16 09:53:32;;;;;;;1.10;0.50;;;13.70;99.90;;;;;;4994875;28;20713;-76
2022/02/16 09:55:59;;;;;;;1.97;0.50;;;13.80;99.90;;;;;;4993507;28;20577;-76
2022/02/16 09:58:24;;;;;;;4.10;0.63;;;13.90;99.90;;;;;;4987138;28;20605;-76
2022/02/16 10:01:01;;;;;;;1.30;0.57;;;13.90;99.90;;;;;;5002479;28;20709;-77
2022/02/16 10:03:27;;;;;;;1.00;0.40;;;14.00;99.90;;;;;;5004022;28;20237;-75
2022/02/16 10:05:53;;;;;;;1.10;0.40;;;14.00;99.90;;;;;;5009334;28;20975;-76
2022/02/16 10:08:42;;;;;;;0.90;0.40;;;14.10;99.90;;;;;;4988277;28;20276;-75
2022/02/16 10:11:08;;;;;;;1.03;0.50;;;14.20;99.90;;;;;;4983533;28;20263;-76
2022/02/16 10:13:34;;;;;;;1.77;0.60;;;14.30;99.90;;;;;;4984658;28;20625;-77
2022/02/16 10:16:01;;;;;;;2.50;0.47;;;14.40;99.90;;;;;;5005134;28;20589;-76
2022/02/16 10:18:27;;;;;;;1.80;0.70;;;14.40;99.90;;;;;;4984562;28;20618;-75
2022/02/16 10:21:25;;;;;;;1.07;0.47;;;14.50;99.90;;;;;;5003345;28;20671;-75
2022/02/16 10:23:52;;;;;;;1.80;0.70;;;14.50;99.90;;;;;;4954650;28;21018;-75
2022/02/16 10:26:19;;;;;;;1.77;0.40;;;14.70;99.90;;;;;;4996736;28;20582;-75
2022/02/16 10:28:50;;;;;;;1.00;0.30;;;14.80;99.90;;;;;;4971190;28;20612;-76
2022/02/16 10:31:16;;;;;;;1.17;0.50;;;14.90;99.90;;;;;;5002278;28;20582;-76
2022/02/16 10:33:44;;;;;;;1.70;1.00;;;15.10;99.90;;;;;;5003115;28;20591;-76
2022/02/16 10:36:19;;;;;;;1.20;0.60;;;15.30;99.90;;;;;;5005061;28;20697;-76
2022/02/16 10:38:52;;;;;;;1.20;0.70;;;15.50;99.90;;;;;;4991833;28;20633;-76
2022/02/16 10:41:19;;;;;;;1.70;0.93;;;15.70;99.90;;;;;;5018469;28;21186;-77
2022/02/16 10:43:44;;;;;;;1.00;0.50;;;15.80;99.90;;;;;;5013694;28;20648;-75
2022/02/16 10:46:19;;;;;;;1.20;0.40;;;15.90;99.90;;;;;;5004488;28;20613;-76
2022/02/16 10:48:45;;;;;;;1.57;0.50;;;16.00;99.90;;;;;;5001079;28;20199;-76
2022/02/16 10:51:16;;;;;;;0.90;0.30;;;16.10;99.90;;;;;;4995684;28;21203;-78
2022/02/16 10:53:42;;;;;;;0.90;0.30;;;16.10;99.90;;;;;;5004062;28;20639;-77
2022/02/16 10:56:08;;;;;;;1.60;0.50;;;16.20;99.90;;;;;;4991842;28;20952;-77
2022/02/16 10:58:35;;;;;;;1.10;0.50;;;16.30;99.90;;;;;;4976415;28;20633;-75
2022/02/16 11:01:01;;;;;;;1.00;0.40;;;16.40;99.90;;;;;;5006873;28;20939;-77
2022/02/16 11:03:34;;;;;;;0.90;0.30;;;16.50;99.90;;;;;;5011344;28;20676;-75
2022/02/16 11:06:06;;;;;;;0.90;0.40;;;16.60;99.90;;;;;;4999900;28;20931;-75
2022/02/16 11:08:33;;;;;;;0.90;0.30;;;16.60;99.90;;;;;;5006717;28;20621;-75
2022/02/16 11:11:03;;;;;;;1.10;0.30;;;16.70;99.90;;;;;;5002722;28;20705;-76
2022/02/16 11:13:33;;;;;;;1.00;0.40;;;16.80;99.90;;;;;;5004414;28;20976;-75
2022/02/16 11:16:00;;;;;;;1.97;0.40;;;16.90;99.90;;;;;;5010929;28;20609;-76
2022/02/16 11:18:30;;;;;;;1.10;0.40;;;16.90;99.90;;;;;;5005264;28;20716;-77
2022/02/16 11:21:14;;;;;;;1.10;0.43;;;17.00;99.90;;;;;;5001963;28;20598;-77
2022/02/16 11:23:49;;;;;;;1.10;0.40;;;17.00;99.90;;;;;;4985069;28;21189;-76
2022/02/16 11:26:30;;;;;;;1.27;0.40;;;17.00;99.90;;;;;;5005473;28;20584;-76
2022/02/16 11:29:00;;;;;;;1.77;0.40;;;17.00;99.90;;;;;;5006358;28;20693;-76
2022/02/16 11:31:30;;;;;;;1.10;0.40;;;17.00;99.90;;;;;;4997636;28;20636;-77
2022/02/16 11:34:11;;;;;;;1.10;0.40;;;17.00;99.90;;;;;;4989230;28;20589;-76
2022/02/16 11:36:58;;;;;;;1.00;0.40;;;17.00;99.90;;;;;;4982328;28;20585;-76
2022/02/16 11:39:48;;;;;;;1.40;0.37;;;17.00;99.90;;;;;;5004801;28;20688;-76
2022/02/16 11:42:20;;;;;;;1.00;0.40;;;16.90;99.90;;;;;;4984117;28;20693;-77
2022/02/16 11:44:48;;;;;;;0.90;0.40;;;17.00;99.90;;;;;;4999572;28;21045;-75
2022/02/16 11:47:33;;;;;;;1.10;0.50;;;17.00;99.90;;;;;;4969140;28;20605;-76
2022/02/16 11:50:12;;;;;;;1.00;0.40;;;16.90;99.90;;;;;;4987705;28;20594;-77
2022/02/16 11:52:50;;;;;;;1.10;0.40;;;16.90;99.90;;;;;;4999785;28;20580;-77
2022/02/16 11:55:26;;;;;;;1.20;0.40;;;16.90;99.90;;;;;;4951601;28;20617;-77
2022/02/16 11:58:01;;;;;;;1.00;0.30;;;16.90;99.90;;;;;;4986245;28;20616;-76
2022/02/16 12:00:44;;;;;;;1.30;0.30;;;16.90;99.90;;;;;;5002906;28;20636;-76
2022/02/16 12:03:20;;;;;;;1.00;0.40;;;16.90;99.90;;;;;;4985649;28;20996;-76
2022/02/16 12:06:02;;;;;;;1.00;0.40;;;16.90;99.90;;;;;;4983554;28;20674;-76
2022/02/16 12:08:39;;;;;;;1.00;0.40;;;16.90;99.90;;;;;;5002227;28;20609;-77
2022/02/16 12:11:19;;;;;;;0.90;0.37;;;17.00;99.90;;;;;;5007635;28;20587;-77
2022/02/16 12:13:46;;;;;;;1.47;0.40;;;17.00;99.90;;;;;;5004682;28;20933;-77
2022/02/16 12:16:21;;;;;;;1.20;0.40;;;17.00;99.90;;;;;;5004616;28;20666;-78
2022/02/16 12:18:48;;;;;;;0.90;0.30;;;17.00;99.90;;;;;;5003885;28;20655;-77
2022/02/16 12:21:21;;;;;;;0.90;0.30;;;17.00;99.90;;;;;;4992752;28;20599;-77
2022/02/16 12:23:47;;;;;;;1.00;0.40;;;17.10;99.90;;;;;;5003386;28;20645;-76
2022/02/16 12:26:17;;;;;;;1.20;0.40;;;17.20;99.90;;;;;;5002932;28;20585;-75
2022/02/16 12:28:51;;;;;;;1.97;0.30;;;17.20;99.90;;;;;;4990601;28;20202;-75
2022/02/16 12:31:17;;;;;;;1.10;0.30;;;17.20;99.90;;;;;;4986399;28;20939;-77
2022/02/16 12:34:10;;;;;;;0.90;0.33;;;17.30;99.90;;;;;;5005370;28;20578;-78
2022/02/16 12:36:41;;;;;;;1.00;0.40;;;17.30;99.90;;;;;;4987874;28;20609;-78
2022/02/16 12:39:09;;;;;;;1.00;0.30;;;17.30;99.90;;;;;;5001706;28;20717;-77
2022/02/16 12:41:36;;;;;;;1.10;0.40;;;17.30;99.90;;;;;;4971576;28;20597;-77
2022/02/16 12:44:06;;;;;;;1.57;0.63;;;17.30;99.90;;;;;;4995584;28;20695;-77
2022/02/16 12:46:35;;;;;;;1.00;0.40;;;17.30;99.90;;;;;;5002294;28;20602;-77
2022/02/16 12:49:02;;;;;;;2.30;1.37;;;17.40;99.90;;;;;;5009100;28;20628;-77
2022/02/16 12:51:36;;;;;;;1.50;0.80;;;17.40;99.90;;;;;;5009813;28;20581;-77
2022/02/16 12:54:13;;;;;;;2.03;0.50;;;17.30;99.90;;;;;;5009582;28;20582;-77
2022/02/16 12:56:46;;;;;;;1.00;0.40;;;17.30;99.90;;;;;;5003836;28;20617;-77
2022/02/16 12:59:21;;;;;;;1.10;0.40;;;17.30;99.90;;;;;;4994313;28;20584;-76